Yasemin — 9HA2114 — position and weather

sailwx.info

Track history (hours):
 
Tides and Currents Weather Stations Pressure Air Temp Water Temp Dewpoint Dewpoint Depression Visibility Wind Speed Wind Dir Waves Ship Positions

Yasemin

Last reported at 2016-Dec-08 15:07 UTC. Time now 2016-Dec-08 16:14 UTC.
Position N 37°55' E 023°01'.

Length 105 m; draft 7.2 m.

Type: Cargo ship. MMSI: 249988000.

Date/timePositionNaut miles runAvg speedWind from/ knotsBaromVisibWave heightAir tempDewpointWater temp
2016-Dec-08 15:07N 37°55' E 023°01'0 0.0
2016-Dec-08 14:33N 37°55' E 023°01'0 0.0
2016-Dec-08 09:09N 37°55' E 023°01'0 0.5
2016-Dec-08 08:33N 37°55' E 023°01'0 0.1
2016-Dec-08 07:33N 37°55' E 023°01'0 0.0
2016-Dec-08 06:33N 37°55' E 023°01'0 0.0
2016-Dec-08 05:33N 37°55' E 023°01'0 0.0
2016-Dec-08 04:33N 37°55' E 023°01'0 0.0
2016-Dec-08 03:34N 37°55' E 023°01'0 0.0
2016-Dec-08 02:33N 37°55' E 023°01'0 0.0
2016-Dec-08 01:34N 37°55' E 023°01'0 0.0
2016-Dec-08 00:34N 37°55' E 023°01'0 0.0
2016-Dec-07 23:33N 37°55' E 023°01'0 0.0
2016-Dec-07 22:33N 37°55' E 023°01'0 0.0
2016-Dec-07 21:34N 37°55' E 023°01'0 0.0
2016-Dec-07 20:33N 37°55' E 023°01'0 0.0
2016-Dec-07 19:33N 37°55' E 023°01'0 0.0
2016-Dec-07 18:33N 37°55' E 023°01'0 0.1
2016-Dec-07 17:33N 37°55' E 023°01'0 0.0
2016-Dec-07 16:33N 37°55' E 023°01'0 0.0
2016-Dec-07 15:33N 37°55' E 023°01'0 0.0
2016-Dec-07 14:33N 37°55' E 023°01'0 0.0
2016-Dec-07 13:33N 37°55' E 023°01'0 0.0
2016-Dec-07 12:33N 37°55' E 023°01'0 0.1
2016-Dec-07 11:33N 37°55' E 023°01'0 0.0
2016-Dec-07 10:31N 37°55' E 023°01'0 0.1
2016-Dec-07 09:33N 37°55' E 023°01'2 2.1
2016-Dec-07 08:33N 37°54' E 023°03'9 9.2
2016-Dec-07 07:33N 37°53' E 023°15'1111.4
2016-Dec-07 06:34N 37°50' E 023°29'10 9.9
2016-Dec-07 05:34N 37°48' E 023°41'1111.0
2016-Dec-07 04:33N 37°37' E 023°45'1311.7
2016-Dec-07 03:29N 37°25' E 023°42'44110.3
2016-Dec-05 08:34N 36°40' E 014°33'1110.7
2016-Dec-05 07:34N 36°44' E 014°21'1010.3
2016-Dec-05 06:34N 36°48' E 014°09'1110.7
2016-Dec-05 05:34N 36°53' E 013°57'1110.7
2016-Dec-05 04:33N 36°58' E 013°45'  
2016-Dec-01 18:21N 35°60' W 005°15'910.9
2016-Dec-01 17:34N 35°58' W 005°25'239 8.5
2016-Nov-30 13:25N 37°47' W 009°50'25 8.0
2016-Nov-30 10:20N 38°11' W 009°58'5 6.3
2016-Nov-30 09:33N 38°16' W 009°59'6 5.9
2016-Nov-30 08:33N 38°21' W 010°01'6 6.0
2016-Nov-30 07:33N 38°27' W 010°02'7 6.9
2016-Nov-30 06:34N 38°34' W 010°04'7 7.1
2016-Nov-30 05:34N 38°41' W 010°06'8 7.7
2016-Nov-30 04:34N 38°48' W 010°07'9 9.5
2016-Nov-30 03:33N 38°58' W 010°06'10 9.9
2016-Nov-30 02:33N 39°08' W 010°07'1410.2
2016-Nov-30 01:08N 39°22' W 010°07'  
Track history (hours):
 
Tides and Currents Weather Stations Pressure Air Temp Water Temp Dewpoint Dewpoint Depression Visibility Wind Speed Wind Dir Waves Ship Positions

Yasemin

Last reported at 2016-Dec-08 15:07 UTC. Time now 2016-Dec-08 16:14 UTC.
Position N 37°55' E 023°01'.

Length 105 m; draft 7.2 m.

Type: Cargo ship. MMSI: 249988000.

Date/timePositionNaut miles runAvg speedWind from/ knotsBaromVisibWave heightAir tempDewpointWater temp
2016-Dec-08 15:07N 37°55' E 023°01'0 0.0
2016-Dec-08 14:33N 37°55' E 023°01'0 0.0
2016-Dec-08 09:09N 37°55' E 023°01'0 0.5
2016-Dec-08 08:33N 37°55' E 023°01'0 0.1
2016-Dec-08 07:33N 37°55' E 023°01'0 0.0
2016-Dec-08 06:33N 37°55' E 023°01'0 0.0
2016-Dec-08 05:33N 37°55' E 023°01'0 0.0
2016-Dec-08 04:33N 37°55' E 023°01'0 0.0
2016-Dec-08 03:34N 37°55' E 023°01'0 0.0
2016-Dec-08 02:33N 37°55' E 023°01'0 0.0
2016-Dec-08 01:34N 37°55' E 023°01'0 0.0
2016-Dec-08 00:34N 37°55' E 023°01'0 0.0
2016-Dec-07 23:33N 37°55' E 023°01'0 0.0
2016-Dec-07 22:33N 37°55' E 023°01'0 0.0
2016-Dec-07 21:34N 37°55' E 023°01'0 0.0
2016-Dec-07 20:33N 37°55' E 023°01'0 0.0
2016-Dec-07 19:33N 37°55' E 023°01'0 0.0
2016-Dec-07 18:33N 37°55' E 023°01'0 0.1
2016-Dec-07 17:33N 37°55' E 023°01'0 0.0
2016-Dec-07 16:33N 37°55' E 023°01'0 0.0
2016-Dec-07 15:33N 37°55' E 023°01'0 0.0
2016-Dec-07 14:33N 37°55' E 023°01'0 0.0
2016-Dec-07 13:33N 37°55' E 023°01'0 0.0
2016-Dec-07 12:33N 37°55' E 023°01'0 0.1
2016-Dec-07 11:33N 37°55' E 023°01'0 0.0
2016-Dec-07 10:31N 37°55' E 023°01'0 0.1
2016-Dec-07 09:33N 37°55' E 023°01'2 2.1
2016-Dec-07 08:33N 37°54' E 023°03'9 9.2
2016-Dec-07 07:33N 37°53' E 023°15'1111.4
2016-Dec-07 06:34N 37°50' E 023°29'10 9.9
2016-Dec-07 05:34N 37°48' E 023°41'1111.0
2016-Dec-07 04:33N 37°37' E 023°45'1311.7
2016-Dec-07 03:29N 37°25' E 023°42'44110.3
2016-Dec-05 08:34N 36°40' E 014°33'1110.7
2016-Dec-05 07:34N 36°44' E 014°21'1010.3
2016-Dec-05 06:34N 36°48' E 014°09'1110.7
2016-Dec-05 05:34N 36°53' E 013°57'1110.7
2016-Dec-05 04:33N 36°58' E 013°45'  
2016-Dec-01 18:21N 35°60' W 005°15'910.9
2016-Dec-01 17:34N 35°58' W 005°25'239 8.5
2016-Nov-30 13:25N 37°47' W 009°50'25 8.0
2016-Nov-30 10:20N 38°11' W 009°58'5 6.3
2016-Nov-30 09:33N 38°16' W 009°59'6 5.9
2016-Nov-30 08:33N 38°21' W 010°01'6 6.0
2016-Nov-30 07:33N 38°27' W 010°02'7 6.9
2016-Nov-30 06:34N 38°34' W 010°04'7 7.1
2016-Nov-30 05:34N 38°41' W 010°06'8 7.7
2016-Nov-30 04:34N 38°48' W 010°07'9 9.5
2016-Nov-30 03:33N 38°58' W 010°06'10 9.9
2016-Nov-30 02:33N 39°08' W 010°07'1410.2
2016-Nov-30 01:08N 39°22' W 010°07'  

Dump ship's entire track history